sensor_id;sensor_type;location;lat;lon;timestamp;temperature;humidity
17172;DHT22;8701;50.150;8.756;2023-02-18T00:02:04;11.50;99.90
17172;DHT22;8701;50.150;8.756;2023-02-18T00:06:11;11.50;99.90
17172;DHT22;8701;50.150;8.756;2023-02-18T00:10:14;11.50;99.90
17172;DHT22;8701;50.150;8.756;2023-02-18T00:14:17;11.50;99.90
17172;DHT22;8701;50.150;8.756;2023-02-18T00:18:20;11.40;99.90
17172;DHT22;8701;50.150;8.756;2023-02-18T00:22:23;11.40;99.90
17172;DHT22;8701;50.150;8.756;2023-02-18T00:26:25;11.40;99.90
17172;DHT22;8701;50.150;8.756;2023-02-18T00:30:28;11.40;99.90
17172;DHT22;8701;50.150;8.756;2023-02-18T00:34:31;11.40;99.90
17172;DHT22;8701;50.150;8.756;2023-02-18T00:38:38;11.40;99.90
17172;DHT22;8701;50.150;8.756;2023-02-18T00:42:40;11.40;99.90
17172;DHT22;8701;50.150;8.756;2023-02-18T00:46:55;11.40;99.90
17172;DHT22;8701;50.150;8.756;2023-02-18T00:50:59;11.30;99.90
17172;DHT22;8701;50.150;8.756;2023-02-18T00:55:02;11.50;99.90
17172;DHT22;8701;50.150;8.756;2023-02-18T00:59:04;11.20;99.90
17172;DHT22;8701;50.150;8.756;2023-02-18T01:03:07;11.30;99.90
17172;DHT22;8701;50.150;8.756;2023-02-18T01:07:11;11.60;99.90
17172;DHT22;8701;50.150;8.756;2023-02-18T01:11:13;11.50;99.90
17172;DHT22;8701;50.150;8.756;2023-02-18T01:15:16;11.30;99.90
17172;DHT22;8701;50.150;8.756;2023-02-18T01:19:19;11.40;99.90
17172;DHT22;8701;50.150;8.756;2023-02-18T01:23:23;11.40;99.90
17172;DHT22;8701;50.150;8.756;2023-02-18T01:27:25;11.40;99.90
17172;DHT22;8701;50.150;8.756;2023-02-18T01:31:27;11.30;99.90
17172;DHT22;8701;50.150;8.756;2023-02-18T01:35:30;11.30;99.90
17172;DHT22;8701;50.150;8.756;2023-02-18T01:39:33;11.30;99.90
17172;DHT22;8701;50.150;8.756;2023-02-18T01:43:36;11.30;99.90
17172;DHT22;8701;50.150;8.756;2023-02-18T01:47:38;11.40;99.90
17172;DHT22;8701;50.150;8.756;2023-02-18T01:51:44;11.30;99.90
17172;DHT22;8701;50.150;8.756;2023-02-18T01:55:49;11.40;99.90
17172;DHT22;8701;50.150;8.756;2023-02-18T01:59:53;11.40;99.90
17172;DHT22;8701;50.150;8.756;2023-02-18T02:03:57;11.20;99.90
17172;DHT22;8701;50.150;8.756;2023-02-18T02:08:00;11.30;99.90
17172;DHT22;8701;50.150;8.756;2023-02-18T02:12:32;11.30;99.90
17172;DHT22;8701;50.150;8.756;2023-02-18T02:16:44;11.30;99.90
17172;DHT22;8701;50.150;8.756;2023-02-18T02:21:12;11.30;99.90
17172;DHT22;8701;50.150;8.756;2023-02-18T02:25:36;11.20;99.90
17172;DHT22;8701;50.150;8.756;2023-02-18T02:34:51;11.30;99.90
17172;DHT22;8701;50.150;8.756;2023-02-18T02:39:27;11.50;99.90
17172;DHT22;8701;50.150;8.756;2023-02-18T02:43:40;11.30;99.90
17172;DHT22;8701;50.150;8.756;2023-02-18T02:47:48;11.30;99.90
17172;DHT22;8701;50.150;8.756;2023-02-18T02:51:59;11.30;99.90
17172;DHT22;8701;50.150;8.756;2023-02-18T02:56:14;11.30;99.90
17172;DHT22;8701;50.150;8.756;2023-02-18T03:00:19;11.30;99.90
17172;DHT22;8701;50.150;8.756;2023-02-18T03:04:37;11.30;99.90
17172;DHT22;8701;50.150;8.756;2023-02-18T03:08:53;11.30;99.90
17172;DHT22;8701;50.150;8.756;2023-02-18T03:13:06;11.20;99.90
17172;DHT22;8701;50.150;8.756;2023-02-18T03:17:17;11.40;99.90
17172;DHT22;8701;50.150;8.756;2023-02-18T03:21:24;11.30;99.90
17172;DHT22;8701;50.150;8.756;2023-02-18T03:25:30;11.30;99.90
17172;DHT22;8701;50.150;8.756;2023-02-18T03:29:34;11.30;99.90
17172;DHT22;8701;50.150;8.756;2023-02-18T03:33:42;11.30;99.90
17172;DHT22;8701;50.150;8.756;2023-02-18T03:37:49;11.20;99.90
17172;DHT22;8701;50.150;8.756;2023-02-18T03:41:58;11.20;99.90
17172;DHT22;8701;50.150;8.756;2023-02-18T03:46:01;11.20;99.90
17172;DHT22;8701;50.150;8.756;2023-02-18T03:50:05;11.10;99.90
17172;DHT22;8701;50.150;8.756;2023-02-18T03:54:08;11.30;99.90
17172;DHT22;8701;50.150;8.756;2023-02-18T03:58:11;11.30;99.90
17172;DHT22;8701;50.150;8.756;2023-02-18T04:02:14;11.30;99.90
17172;DHT22;8701;50.150;8.756;2023-02-18T04:06:16;11.30;99.90
17172;DHT22;8701;50.150;8.756;2023-02-18T04:10:19;11.50;99.90
17172;DHT22;8701;50.150;8.756;2023-02-18T04:14:24;11.30;99.90
17172;DHT22;8701;50.150;8.756;2023-02-18T04:18:29;11.30;99.90
17172;DHT22;8701;50.150;8.756;2023-02-18T04:22:31;11.30;99.90
17172;DHT22;8701;50.150;8.756;2023-02-18T04:26:34;11.30;99.90
17172;DHT22;8701;50.150;8.756;2023-02-18T04:30:37;11.50;99.90
17172;DHT22;8701;50.150;8.756;2023-02-18T04:34:40;11.20;99.90
17172;DHT22;8701;50.150;8.756;2023-02-18T04:38:42;11.30;99.90
17172;DHT22;8701;50.150;8.756;2023-02-18T04:42:44;11.30;99.90
17172;DHT22;8701;50.150;8.756;2023-02-18T04:46:48;11.20;99.90
17172;DHT22;8701;50.150;8.756;2023-02-18T04:50:51;11.30;99.90
17172;DHT22;8701;50.150;8.756;2023-02-18T04:54:53;11.30;99.90
17172;DHT22;8701;50.150;8.756;2023-02-18T04:58:55;11.20;99.90
17172;DHT22;8701;50.150;8.756;2023-02-18T05:02:59;11.30;99.90
17172;DHT22;8701;50.150;8.756;2023-02-18T05:07:01;11.30;99.90
17172;DHT22;8701;50.150;8.756;2023-02-18T05:11:14;11.30;99.90
17172;DHT22;8701;50.150;8.756;2023-02-18T05:15:17;11.20;99.90
17172;DHT22;8701;50.150;8.756;2023-02-18T05:19:20;11.20;99.90
17172;DHT22;8701;50.150;8.756;2023-02-18T05:23:23;11.20;99.90
17172;DHT22;8701;50.150;8.756;2023-02-18T05:27:25;11.10;99.90
17172;DHT22;8701;50.150;8.756;2023-02-18T05:31:28;11.10;99.90
17172;DHT22;8701;50.150;8.756;2023-02-18T05:35:31;11.10;99.90
17172;DHT22;8701;50.150;8.756;2023-02-18T05:39:34;11.00;99.90
17172;DHT22;8701;50.150;8.756;2023-02-18T05:43:36;11.00;99.90
17172;DHT22;8701;50.150;8.756;2023-02-18T05:47:53;11.00;99.90
17172;DHT22;8701;50.150;8.756;2023-02-18T05:51:57;11.00;99.90
17172;DHT22;8701;50.150;8.756;2023-02-18T05:56:00;11.00;99.90
17172;DHT22;8701;50.150;8.756;2023-02-18T06:00:04;10.90;99.90
17172;DHT22;8701;50.150;8.756;2023-02-18T06:04:09;10.90;99.90
17172;DHT22;8701;50.150;8.756;2023-02-18T06:08:12;11.00;99.90
17172;DHT22;8701;50.150;8.756;2023-02-18T06:12:15;10.90;99.90
17172;DHT22;8701;50.150;8.756;2023-02-18T06:16:17;11.00;99.90
17172;DHT22;8701;50.150;8.756;2023-02-18T06:20:19;11.00;99.90
17172;DHT22;8701;50.150;8.756;2023-02-18T06:24:23;11.10;99.90
17172;DHT22;8701;50.150;8.756;2023-02-18T06:28:25;10.90;99.90
17172;DHT22;8701;50.150;8.756;2023-02-18T06:32:28;11.20;99.90
17172;DHT22;8701;50.150;8.756;2023-02-18T06:36:30;11.10;99.90
17172;DHT22;8701;50.150;8.756;2023-02-18T06:40:34;11.10;99.90
17172;DHT22;8701;50.150;8.756;2023-02-18T06:44:36;11.20;99.90
17172;DHT22;8701;50.150;8.756;2023-02-18T06:48:38;11.20;99.90
17172;DHT22;8701;50.150;8.756;2023-02-18T06:52:41;11.20;99.90
17172;DHT22;8701;50.150;8.756;2023-02-18T06:56:44;11.20;99.90
17172;DHT22;8701;50.150;8.756;2023-02-18T07:00:48;11.30;99.90
17172;DHT22;8701;50.150;8.756;2023-02-18T07:04:50;11.30;99.90
17172;DHT22;8701;50.150;8.756;2023-02-18T07:08:52;11.30;99.90
17172;DHT22;8701;50.150;8.756;2023-02-18T07:12:56;11.20;99.90
17172;DHT22;8701;50.150;8.756;2023-02-18T07:16:58;11.30;99.90
17172;DHT22;8701;50.150;8.756;2023-02-18T07:21:01;11.30;99.90
17172;DHT22;8701;50.150;8.756;2023-02-18T07:25:03;11.30;99.90
17172;DHT22;8701;50.150;8.756;2023-02-18T07:29:08;11.30;99.90
17172;DHT22;8701;50.150;8.756;2023-02-18T07:33:10;11.30;99.90
17172;DHT22;8701;50.150;8.756;2023-02-18T07:37:14;11.30;99.90
17172;DHT22;8701;50.150;8.756;2023-02-18T07:41:18;11.30;99.90
17172;DHT22;8701;50.150;8.756;2023-02-18T07:45:22;11.60;99.90
17172;DHT22;8701;50.150;8.756;2023-02-18T07:49:24;11.40;99.90
17172;DHT22;8701;50.150;8.756;2023-02-18T07:53:28;11.40;99.90
17172;DHT22;8701;50.150;8.756;2023-02-18T07:57:30;11.70;99.90
17172;DHT22;8701;50.150;8.756;2023-02-18T08:01:42;11.50;99.90
17172;DHT22;8701;50.150;8.756;2023-02-18T08:05:53;11.60;99.90
17172;DHT22;8701;50.150;8.756;2023-02-18T08:09:55;11.50;99.90
17172;DHT22;8701;50.150;8.756;2023-02-18T08:13:59;11.50;99.90
17172;DHT22;8701;50.150;8.756;2023-02-18T08:18:03;11.40;99.90
17172;DHT22;8701;50.150;8.756;2023-02-18T08:22:05;11.50;99.90
17172;DHT22;8701;50.150;8.756;2023-02-18T08:26:08;11.50;99.90
17172;DHT22;8701;50.150;8.756;2023-02-18T08:30:16;11.50;99.90
17172;DHT22;8701;50.150;8.756;2023-02-18T08:34:19;11.90;99.90
17172;DHT22;8701;50.150;8.756;2023-02-18T08:38:23;12.30;99.90
17172;DHT22;8701;50.150;8.756;2023-02-18T08:42:25;12.10;99.90
17172;DHT22;8701;50.150;8.756;2023-02-18T08:46:32;12.10;99.90
17172;DHT22;8701;50.150;8.756;2023-02-18T08:50:35;12.30;99.90
17172;DHT22;8701;50.150;8.756;2023-02-18T08:54:38;12.60;99.90
17172;DHT22;8701;50.150;8.756;2023-02-18T08:58:46;12.60;99.90
17172;DHT22;8701;50.150;8.756;2023-02-18T09:02:52;12.30;99.90
17172;DHT22;8701;50.150;8.756;2023-02-18T09:06:59;12.10;99.90
17172;DHT22;8701;50.150;8.756;2023-02-18T09:11:03;12.00;99.90
17172;DHT22;8701;50.150;8.756;2023-02-18T09:15:06;11.90;99.90
17172;DHT22;8701;50.150;8.756;2023-02-18T09:19:08;11.90;99.90
17172;DHT22;8701;50.150;8.756;2023-02-18T09:23:28;11.80;99.90
17172;DHT22;8701;50.150;8.756;2023-02-18T09:27:30;11.90;99.90
17172;DHT22;8701;50.150;8.756;2023-02-18T09:31:33;12.10;99.90
17172;DHT22;8701;50.150;8.756;2023-02-18T09:35:38;11.90;99.90
17172;DHT22;8701;50.150;8.756;2023-02-18T09:39:41;12.00;99.90
17172;DHT22;8701;50.150;8.756;2023-02-18T09:43:46;11.90;99.90
17172;DHT22;8701;50.150;8.756;2023-02-18T09:47:49;11.90;99.90
17172;DHT22;8701;50.150;8.756;2023-02-18T09:51:53;11.80;99.90
17172;DHT22;8701;50.150;8.756;2023-02-18T09:55:58;12.00;99.90
17172;DHT22;8701;50.150;8.756;2023-02-18T10:00:04;11.90;99.90
17172;DHT22;8701;50.150;8.756;2023-02-18T10:04:16;11.90;99.90
17172;DHT22;8701;50.150;8.756;2023-02-18T10:08:26;12.00;99.90
17172;DHT22;8701;50.150;8.756;2023-02-18T10:12:31;11.90;99.90
17172;DHT22;8701;50.150;8.756;2023-02-18T10:16:33;11.90;99.90
17172;DHT22;8701;50.150;8.756;2023-02-18T10:20:36;11.90;99.90
17172;DHT22;8701;50.150;8.756;2023-02-18T10:24:41;11.90;99.90
17172;DHT22;8701;50.150;8.756;2023-02-18T10:28:46;11.90;99.90
17172;DHT22;8701;50.150;8.756;2023-02-18T10:32:51;12.00;99.90
17172;DHT22;8701;50.150;8.756;2023-02-18T10:37:02;12.10;99.90
17172;DHT22;8701;50.150;8.756;2023-02-18T10:41:12;12.30;99.90
17172;DHT22;8701;50.150;8.756;2023-02-18T10:45:27;12.20;99.90
17172;DHT22;8701;50.150;8.756;2023-02-18T10:49:52;12.30;99.90
17172;DHT22;8701;50.150;8.756;2023-02-18T10:53:56;12.30;99.90
17172;DHT22;8701;50.150;8.756;2023-02-18T10:57:59;12.40;99.90
17172;DHT22;8701;50.150;8.756;2023-02-18T11:02:12;12.50;99.90
17172;DHT22;8701;50.150;8.756;2023-02-18T11:06:20;12.60;99.90
17172;DHT22;8701;50.150;8.756;2023-02-18T11:10:25;12.60;99.90
17172;DHT22;8701;50.150;8.756;2023-02-18T11:14:38;12.80;99.90
17172;DHT22;8701;50.150;8.756;2023-02-18T11:18:43;12.90;99.90
17172;DHT22;8701;50.150;8.756;2023-02-18T11:22:46;12.80;99.90
17172;DHT22;8701;50.150;8.756;2023-02-18T11:26:49;13.00;99.90
17172;DHT22;8701;50.150;8.756;2023-02-18T11:30:54;13.00;99.90
17172;DHT22;8701;50.150;8.756;2023-02-18T11:34:58;13.40;99.90
17172;DHT22;8701;50.150;8.756;2023-02-18T11:39:19;13.50;99.90
17172;DHT22;8701;50.150;8.756;2023-02-18T11:43:40;13.30;99.90
17172;DHT22;8701;50.150;8.756;2023-02-18T11:47:58;13.00;99.90
17172;DHT22;8701;50.150;8.756;2023-02-18T11:52:15;12.80;99.90
17172;DHT22;8701;50.150;8.756;2023-02-18T11:56:20;12.60;99.90
17172;DHT22;8701;50.150;8.756;2023-02-18T12:00:36;12.50;99.90
17172;DHT22;8701;50.150;8.756;2023-02-18T12:04:42;12.50;99.90
17172;DHT22;8701;50.150;8.756;2023-02-18T12:08:50;12.40;99.90
17172;DHT22;8701;50.150;8.756;2023-02-18T12:12:58;12.40;99.90
17172;DHT22;8701;50.150;8.756;2023-02-18T12:21:47;13.20;99.90
17172;DHT22;8701;50.150;8.756;2023-02-18T12:26:01;14.20;99.90
17172;DHT22;8701;50.150;8.756;2023-02-18T12:30:19;14.80;99.90
17172;DHT22;8701;50.150;8.756;2023-02-18T12:34:33;14.70;99.90
17172;DHT22;8701;50.150;8.756;2023-02-18T12:38:49;15.30;99.90
17172;DHT22;8701;50.150;8.756;2023-02-18T12:43:03;15.40;99.90
17172;DHT22;8701;50.150;8.756;2023-02-18T12:47:37;14.60;99.90
17172;DHT22;8701;50.150;8.756;2023-02-18T12:51:53;13.90;99.90
17172;DHT22;8701;50.150;8.756;2023-02-18T12:56:14;13.50;99.90
17172;DHT22;8701;50.150;8.756;2023-02-18T13:00:38;13.30;99.90
17172;DHT22;8701;50.150;8.756;2023-02-18T13:04:53;13.30;99.90
17172;DHT22;8701;50.150;8.756;2023-02-18T13:09:06;13.20;99.90
17172;DHT22;8701;50.150;8.756;2023-02-18T13:13:12;13.20;99.90
17172;DHT22;8701;50.150;8.756;2023-02-18T13:17:18;13.00;99.90
17172;DHT22;8701;50.150;8.756;2023-02-18T13:21:22;12.90;99.90
17172;DHT22;8701;50.150;8.756;2023-02-18T13:25:25;13.10;99.90
17172;DHT22;8701;50.150;8.756;2023-02-18T13:29:31;13.10;99.90
17172;DHT22;8701;50.150;8.756;2023-02-18T13:33:42;13.10;99.90
17172;DHT22;8701;50.150;8.756;2023-02-18T13:37:54;13.10;99.90
17172;DHT22;8701;50.150;8.756;2023-02-18T13:42:23;13.10;99.90
17172;DHT22;8701;50.150;8.756;2023-02-18T13:46:26;13.20;99.90
17172;DHT22;8701;50.150;8.756;2023-02-18T13:50:32;13.30;99.90
17172;DHT22;8701;50.150;8.756;2023-02-18T13:54:42;13.20;99.90
17172;DHT22;8701;50.150;8.756;2023-02-18T13:58:48;13.10;99.90
17172;DHT22;8701;50.150;8.756;2023-02-18T14:02:56;13.10;99.90
17172;DHT22;8701;50.150;8.756;2023-02-18T14:11:53;12.90;99.90
17172;DHT22;8701;50.150;8.756;2023-02-18T14:15:58;12.70;99.90
17172;DHT22;8701;50.150;8.756;2023-02-18T14:25:35;12.50;99.90
17172;DHT22;8701;50.150;8.756;2023-02-18T14:29:39;12.50;99.90
17172;DHT22;8701;50.150;8.756;2023-02-18T14:33:47;12.60;99.90
17172;DHT22;8701;50.150;8.756;2023-02-18T14:38:15;12.70;99.90
17172;DHT22;8701;50.150;8.756;2023-02-18T14:42:33;12.70;99.90
17172;DHT22;8701;50.150;8.756;2023-02-18T14:46:50;12.80;99.90
17172;DHT22;8701;50.150;8.756;2023-02-18T14:50:56;12.80;99.90
17172;DHT22;8701;50.150;8.756;2023-02-18T14:55:02;12.90;99.90
17172;DHT22;8701;50.150;8.756;2023-02-18T14:59:05;12.90;99.90
17172;DHT22;8701;50.150;8.756;2023-02-18T15:03:13;12.90;99.90
17172;DHT22;8701;50.150;8.756;2023-02-18T15:07:19;12.70;99.90
17172;DHT22;8701;50.150;8.756;2023-02-18T15:11:24;12.80;99.90
17172;DHT22;8701;50.150;8.756;2023-02-18T15:15:27;12.70;99.90
17172;DHT22;8701;50.150;8.756;2023-02-18T15:19:36;12.80;99.90
17172;DHT22;8701;50.150;8.756;2023-02-18T15:23:40;12.80;99.90
17172;DHT22;8701;50.150;8.756;2023-02-18T15:27:42;12.60;99.90
17172;DHT22;8701;50.150;8.756;2023-02-18T15:31:47;12.60;99.90
17172;DHT22;8701;50.150;8.756;2023-02-18T15:35:51;12.60;99.90
17172;DHT22;8701;50.150;8.756;2023-02-18T15:39:53;12.50;99.90
17172;DHT22;8701;50.150;8.756;2023-02-18T15:44:00;12.40;99.90
17172;DHT22;8701;50.150;8.756;2023-02-18T15:48:04;12.40;99.90
17172;DHT22;8701;50.150;8.756;2023-02-18T15:52:08;12.40;99.90
17172;DHT22;8701;50.150;8.756;2023-02-18T15:56:16;12.40;99.90
17172;DHT22;8701;50.150;8.756;2023-02-18T16:00:20;12.40;99.90
17172;DHT22;8701;50.150;8.756;2023-02-18T16:04:30;12.40;99.90
17172;DHT22;8701;50.150;8.756;2023-02-18T16:08:34;12.30;99.90
17172;DHT22;8701;50.150;8.756;2023-02-18T16:12:38;12.30;99.90
17172;DHT22;8701;50.150;8.756;2023-02-18T16:16:42;12.30;99.90
17172;DHT22;8701;50.150;8.756;2023-02-18T16:20:52;12.20;99.90
17172;DHT22;8701;50.150;8.756;2023-02-18T16:25:00;12.20;99.90
17172;DHT22;8701;50.150;8.756;2023-02-18T16:29:10;12.10;99.90
17172;DHT22;8701;50.150;8.756;2023-02-18T16:33:13;12.10;99.90
17172;DHT22;8701;50.150;8.756;2023-02-18T16:37:16;12.00;99.90
17172;DHT22;8701;50.150;8.756;2023-02-18T16:41:37;12.00;99.90
17172;DHT22;8701;50.150;8.756;2023-02-18T16:45:43;11.90;99.90
17172;DHT22;8701;50.150;8.756;2023-02-18T16:49:50;11.90;99.90
17172;DHT22;8701;50.150;8.756;2023-02-18T16:53:53;11.90;99.90
17172;DHT22;8701;50.150;8.756;2023-02-18T16:57:57;11.80;99.90
17172;DHT22;8701;50.150;8.756;2023-02-18T17:01:59;12.00;99.90
17172;DHT22;8701;50.150;8.756;2023-02-18T17:06:02;11.80;99.90
17172;DHT22;8701;50.150;8.756;2023-02-18T17:10:05;11.90;99.90
17172;DHT22;8701;50.150;8.756;2023-02-18T17:14:13;11.90;99.90
17172;DHT22;8701;50.150;8.756;2023-02-18T17:18:18;11.90;99.90
17172;DHT22;8701;50.150;8.756;2023-02-18T17:22:20;11.90;99.90
17172;DHT22;8701;50.150;8.756;2023-02-18T17:31:54;11.70;99.90
17172;DHT22;8701;50.150;8.756;2023-02-18T17:35:57;11.80;99.90
17172;DHT22;8701;50.150;8.756;2023-02-18T17:39:59;11.70;99.90
17172;DHT22;8701;50.150;8.756;2023-02-18T17:44:02;11.70;99.90
17172;DHT22;8701;50.150;8.756;2023-02-18T17:48:06;11.80;99.90
17172;DHT22;8701;50.150;8.756;2023-02-18T17:52:21;11.80;99.90
17172;DHT22;8701;50.150;8.756;2023-02-18T17:56:26;11.60;99.90
17172;DHT22;8701;50.150;8.756;2023-02-18T18:00:31;11.60;99.90
17172;DHT22;8701;50.150;8.756;2023-02-18T18:04:35;11.70;99.90
17172;DHT22;8701;50.150;8.756;2023-02-18T18:08:37;11.60;99.90
17172;DHT22;8701;50.150;8.756;2023-02-18T18:12:40;11.40;99.90
17172;DHT22;8701;50.150;8.756;2023-02-18T18:16:42;11.60;99.90
17172;DHT22;8701;50.150;8.756;2023-02-18T18:20:49;11.60;99.90
17172;DHT22;8701;50.150;8.756;2023-02-18T18:24:52;11.40;99.90
17172;DHT22;8701;50.150;8.756;2023-02-18T18:28:54;11.50;99.90
17172;DHT22;8701;50.150;8.756;2023-02-18T18:32:57;11.50;99.90
17172;DHT22;8701;50.150;8.756;2023-02-18T18:37:01;11.60;99.90
17172;DHT22;8701;50.150;8.756;2023-02-18T18:41:04;11.50;99.90
17172;DHT22;8701;50.150;8.756;2023-02-18T18:45:09;11.50;99.90
17172;DHT22;8701;50.150;8.756;2023-02-18T18:49:16;11.50;99.90
17172;DHT22;8701;50.150;8.756;2023-02-18T18:53:21;11.50;99.90
17172;DHT22;8701;50.150;8.756;2023-02-18T18:57:23;11.50;99.90
17172;DHT22;8701;50.150;8.756;2023-02-18T19:01:27;11.50;99.90
17172;DHT22;8701;50.150;8.756;2023-02-18T19:05:32;11.50;99.90
17172;DHT22;8701;50.150;8.756;2023-02-18T19:09:36;11.40;99.90
17172;DHT22;8701;50.150;8.756;2023-02-18T19:13:39;11.40;99.90
17172;DHT22;8701;50.150;8.756;2023-02-18T19:17:46;11.40;99.90
17172;DHT22;8701;50.150;8.756;2023-02-18T19:21:48;11.30;99.90
17172;DHT22;8701;50.150;8.756;2023-02-18T19:26:12;11.40;99.90
17172;DHT22;8701;50.150;8.756;2023-02-18T19:34:22;11.30;99.90
17172;DHT22;8701;50.150;8.756;2023-02-18T19:38:25;11.30;99.90
17172;DHT22;8701;50.150;8.756;2023-02-18T19:42:29;11.20;99.90
17172;DHT22;8701;50.150;8.756;2023-02-18T19:46:31;11.20;99.90
17172;DHT22;8701;50.150;8.756;2023-02-18T19:50:33;11.20;99.90
17172;DHT22;8701;50.150;8.756;2023-02-18T19:54:35;11.20;99.90
17172;DHT22;8701;50.150;8.756;2023-02-18T19:58:39;11.20;99.90
17172;DHT22;8701;50.150;8.756;2023-02-18T20:02:42;11.20;99.90
17172;DHT22;8701;50.150;8.756;2023-02-18T20:06:44;11.10;99.90
17172;DHT22;8701;50.150;8.756;2023-02-18T20:10:55;11.00;99.90
17172;DHT22;8701;50.150;8.756;2023-02-18T20:14:59;11.10;99.90
17172;DHT22;8701;50.150;8.756;2023-02-18T20:19:01;11.10;99.90
17172;DHT22;8701;50.150;8.756;2023-02-18T20:23:03;11.10;99.90
17172;DHT22;8701;50.150;8.756;2023-02-18T20:27:06;11.10;99.90
17172;DHT22;8701;50.150;8.756;2023-02-18T20:31:13;11.10;99.90
17172;DHT22;8701;50.150;8.756;2023-02-18T20:35:16;11.30;99.90
17172;DHT22;8701;50.150;8.756;2023-02-18T20:39:19;11.00;99.90
17172;DHT22;8701;50.150;8.756;2023-02-18T20:43:22;11.30;99.90
17172;DHT22;8701;50.150;8.756;2023-02-18T20:47:27;11.00;99.90
17172;DHT22;8701;50.150;8.756;2023-02-18T20:51:29;11.00;99.90
17172;DHT22;8701;50.150;8.756;2023-02-18T20:55:32;11.00;99.90
17172;DHT22;8701;50.150;8.756;2023-02-18T20:59:34;11.20;99.90
17172;DHT22;8701;50.150;8.756;2023-02-18T21:03:38;11.00;99.90
17172;DHT22;8701;50.150;8.756;2023-02-18T21:07:41;10.80;99.90
17172;DHT22;8701;50.150;8.756;2023-02-18T21:11:43;11.00;99.90
17172;DHT22;8701;50.150;8.756;2023-02-18T21:15:46;11.00;99.90
17172;DHT22;8701;50.150;8.756;2023-02-18T21:19:50;11.00;99.90
17172;DHT22;8701;50.150;8.756;2023-02-18T21:23:52;11.20;99.90
17172;DHT22;8701;50.150;8.756;2023-02-18T21:27:59;11.00;99.90
17172;DHT22;8701;50.150;8.756;2023-02-18T21:32:02;10.90;99.90
17172;DHT22;8701;50.150;8.756;2023-02-18T21:36:06;11.00;99.90
17172;DHT22;8701;50.150;8.756;2023-02-18T21:40:09;11.00;99.90
17172;DHT22;8701;50.150;8.756;2023-02-18T21:44:12;11.00;99.90
17172;DHT22;8701;50.150;8.756;2023-02-18T21:48:14;11.10;99.90
17172;DHT22;8701;50.150;8.756;2023-02-18T21:52:35;11.00;99.90
17172;DHT22;8701;50.150;8.756;2023-02-18T21:56:37;11.30;99.90
17172;DHT22;8701;50.150;8.756;2023-02-18T22:00:40;11.00;99.90
17172;DHT22;8701;50.150;8.756;2023-02-18T22:04:42;10.90;99.90
17172;DHT22;8701;50.150;8.756;2023-02-18T22:08:46;10.90;99.90
17172;DHT22;8701;50.150;8.756;2023-02-18T22:12:52;10.90;99.90
17172;DHT22;8701;50.150;8.756;2023-02-18T22:16:54;10.90;99.90
17172;DHT22;8701;50.150;8.756;2023-02-18T22:20:57;10.90;99.90
17172;DHT22;8701;50.150;8.756;2023-02-18T22:25:01;10.90;99.90
17172;DHT22;8701;50.150;8.756;2023-02-18T22:29:04;10.90;99.90
17172;DHT22;8701;50.150;8.756;2023-02-18T22:33:06;10.80;99.90
17172;DHT22;8701;50.150;8.756;2023-02-18T22:37:09;10.80;99.90
17172;DHT22;8701;50.150;8.756;2023-02-18T22:41:13;10.70;99.90
17172;DHT22;8701;50.150;8.756;2023-02-18T22:45:16;10.80;99.90
17172;DHT22;8701;50.150;8.756;2023-02-18T22:49:18;10.80;99.90
17172;DHT22;8701;50.150;8.756;2023-02-18T22:53:21;10.80;99.90
17172;DHT22;8701;50.150;8.756;2023-02-18T22:57:24;10.70;99.90
17172;DHT22;8701;50.150;8.756;2023-02-18T23:01:30;10.70;99.90
17172;DHT22;8701;50.150;8.756;2023-02-18T23:05:33;10.70;99.90
17172;DHT22;8701;50.150;8.756;2023-02-18T23:09:35;10.70;99.90
17172;DHT22;8701;50.150;8.756;2023-02-18T23:13:40;10.90;99.90
17172;DHT22;8701;50.150;8.756;2023-02-18T23:17:43;10.70;99.90
17172;DHT22;8701;50.150;8.756;2023-02-18T23:21:45;10.70;99.90
17172;DHT22;8701;50.150;8.756;2023-02-18T23:25:48;10.70;99.90
17172;DHT22;8701;50.150;8.756;2023-02-18T23:29:52;10.70;99.90
17172;DHT22;8701;50.150;8.756;2023-02-18T23:34:00;10.70;99.90
17172;DHT22;8701;50.150;8.756;2023-02-18T23:38:02;10.70;99.90
17172;DHT22;8701;50.150;8.756;2023-02-18T23:42:05;10.70;99.90
17172;DHT22;8701;50.150;8.756;2023-02-18T23:46:08;10.70;99.90
17172;DHT22;8701;50.150;8.756;2023-02-18T23:50:11;10.70;99.90
17172;DHT22;8701;50.150;8.756;2023-02-18T23:54:16;10.70;99.90
17172;DHT22;8701;50.150;8.756;2023-02-18T23:58:18;10.70;99.90
